sensor_id;sensor_type;location;lat;lon;timestamp;temperature;humidity
53152;DHT22;39234;53.158;6.322;2023-07-02T00:00:03;17.50;99.90
53152;DHT22;39234;53.158;6.322;2023-07-02T00:02:30;15.30;99.90
53152;DHT22;39234;53.158;6.322;2023-07-02T00:04:56;15.30;99.90
53152;DHT22;39234;53.158;6.322;2023-07-02T00:07:22;15.30;99.90
53152;DHT22;39234;53.158;6.322;2023-07-02T00:09:48;15.30;99.90
53152;DHT22;39234;53.158;6.322;2023-07-02T00:12:14;15.30;99.90
53152;DHT22;39234;53.158;6.322;2023-07-02T00:14:40;15.20;99.90
53152;DHT22;39234;53.158;6.322;2023-07-02T00:17:05;15.20;99.90
53152;DHT22;39234;53.158;6.322;2023-07-02T00:19:31;15.40;99.90
53152;DHT22;39234;53.158;6.322;2023-07-02T00:21:58;15.30;99.90
53152;DHT22;39234;53.158;6.322;2023-07-02T00:24:23;15.30;99.90
53152;DHT22;39234;53.158;6.322;2023-07-02T00:26:49;15.30;99.90
53152;DHT22;39234;53.158;6.322;2023-07-02T00:29:15;15.10;99.90
53152;DHT22;39234;53.158;6.322;2023-07-02T00:31:41;15.40;99.90
53152;DHT22;39234;53.158;6.322;2023-07-02T00:34:06;15.30;99.90
53152;DHT22;39234;53.158;6.322;2023-07-02T00:36:32;15.10;99.90
53152;DHT22;39234;53.158;6.322;2023-07-02T00:38:58;15.10;99.90
53152;DHT22;39234;53.158;6.322;2023-07-02T00:41:24;15.10;99.90
53152;DHT22;39234;53.158;6.322;2023-07-02T00:43:50;15.20;99.90
53152;DHT22;39234;53.158;6.322;2023-07-02T00:46:20;15.10;99.90
53152;DHT22;39234;53.158;6.322;2023-07-02T00:48:51;15.00;99.90
53152;DHT22;39234;53.158;6.322;2023-07-02T00:51:19;15.10;99.90
53152;DHT22;39234;53.158;6.322;2023-07-02T00:53:47;15.00;99.90
53152;DHT22;39234;53.158;6.322;2023-07-02T00:56:13;15.10;99.90
53152;DHT22;39234;53.158;6.322;2023-07-02T00:58:41;15.20;99.90
53152;DHT22;39234;53.158;6.322;2023-07-02T01:01:13;14.90;99.90
53152;DHT22;39234;53.158;6.322;2023-07-02T01:03:50;14.90;99.90
53152;DHT22;39234;53.158;6.322;2023-07-02T01:06:18;14.90;99.90
53152;DHT22;39234;53.158;6.322;2023-07-02T01:08:46;14.90;99.90
53152;DHT22;39234;53.158;6.322;2023-07-02T01:11:12;14.80;99.90
53152;DHT22;39234;53.158;6.322;2023-07-02T01:13:38;14.90;99.90
53152;DHT22;39234;53.158;6.322;2023-07-02T01:16:04;14.80;99.90
53152;DHT22;39234;53.158;6.322;2023-07-02T01:18:30;14.70;99.90
53152;DHT22;39234;53.158;6.322;2023-07-02T01:20:56;14.70;99.90
53152;DHT22;39234;53.158;6.322;2023-07-02T01:23:23;14.70;99.90
53152;DHT22;39234;53.158;6.322;2023-07-02T01:25:51;14.70;99.90
53152;DHT22;39234;53.158;6.322;2023-07-02T01:28:17;14.60;99.90
53152;DHT22;39234;53.158;6.322;2023-07-02T01:30:43;14.60;99.90
53152;DHT22;39234;53.158;6.322;2023-07-02T01:33:08;14.70;99.90
53152;DHT22;39234;53.158;6.322;2023-07-02T01:35:34;14.50;99.90
53152;DHT22;39234;53.158;6.322;2023-07-02T01:38:00;14.60;99.90
53152;DHT22;39234;53.158;6.322;2023-07-02T01:40:26;14.50;99.90
53152;DHT22;39234;53.158;6.322;2023-07-02T01:42:51;14.50;99.90
53152;DHT22;39234;53.158;6.322;2023-07-02T01:45:17;14.30;99.90
53152;DHT22;39234;53.158;6.322;2023-07-02T01:47:43;14.50;99.90
53152;DHT22;39234;53.158;6.322;2023-07-02T01:50:09;14.40;99.90
53152;DHT22;39234;53.158;6.322;2023-07-02T01:52:35;14.20;99.90
53152;DHT22;39234;53.158;6.322;2023-07-02T01:55:01;14.30;99.90
53152;DHT22;39234;53.158;6.322;2023-07-02T01:57:27;14.50;99.90
53152;DHT22;39234;53.158;6.322;2023-07-02T01:59:53;14.30;99.90
53152;DHT22;39234;53.158;6.322;2023-07-02T02:02:18;14.40;99.90
53152;DHT22;39234;53.158;6.322;2023-07-02T02:04:45;14.30;99.90
53152;DHT22;39234;53.158;6.322;2023-07-02T02:07:10;14.30;99.90
53152;DHT22;39234;53.158;6.322;2023-07-02T02:09:36;14.20;99.90
53152;DHT22;39234;53.158;6.322;2023-07-02T02:12:02;14.30;99.90
53152;DHT22;39234;53.158;6.322;2023-07-02T02:14:28;14.40;99.90
53152;DHT22;39234;53.158;6.322;2023-07-02T02:16:53;14.20;99.90
53152;DHT22;39234;53.158;6.322;2023-07-02T02:19:19;14.40;99.90
53152;DHT22;39234;53.158;6.322;2023-07-02T02:21:45;14.20;99.90
53152;DHT22;39234;53.158;6.322;2023-07-02T02:24:10;14.10;99.90
53152;DHT22;39234;53.158;6.322;2023-07-02T02:26:36;14.20;99.90
53152;DHT22;39234;53.158;6.322;2023-07-02T02:29:02;14.20;99.90
53152;DHT22;39234;53.158;6.322;2023-07-02T02:31:28;14.00;99.90
53152;DHT22;39234;53.158;6.322;2023-07-02T02:33:54;14.00;99.90
53152;DHT22;39234;53.158;6.322;2023-07-02T02:36:20;14.10;99.90
53152;DHT22;39234;53.158;6.322;2023-07-02T02:38:46;14.00;99.90
53152;DHT22;39234;53.158;6.322;2023-07-02T02:41:12;14.00;99.90
53152;DHT22;39234;53.158;6.322;2023-07-02T02:43:41;14.10;99.90
53152;DHT22;39234;53.158;6.322;2023-07-02T02:46:09;13.60;99.90
53152;DHT22;39234;53.158;6.322;2023-07-02T02:48:34;13.80;99.90
53152;DHT22;39234;53.158;6.322;2023-07-02T02:51:00;13.60;99.90
53152;DHT22;39234;53.158;6.322;2023-07-02T02:53:26;13.60;99.90
53152;DHT22;39234;53.158;6.322;2023-07-02T02:55:51;13.60;99.90
53152;DHT22;39234;53.158;6.322;2023-07-02T02:58:17;13.80;99.90
53152;DHT22;39234;53.158;6.322;2023-07-02T03:00:43;13.60;99.90
53152;DHT22;39234;53.158;6.322;2023-07-02T03:03:12;13.20;99.90
53152;DHT22;39234;53.158;6.322;2023-07-02T03:05:38;13.70;99.90
53152;DHT22;39234;53.158;6.322;2023-07-02T03:08:05;13.30;99.90
53152;DHT22;39234;53.158;6.322;2023-07-02T03:10:30;13.40;99.90
53152;DHT22;39234;53.158;6.322;2023-07-02T03:12:56;13.40;99.90
53152;DHT22;39234;53.158;6.322;2023-07-02T03:15:22;13.10;99.90
53152;DHT22;39234;53.158;6.322;2023-07-02T03:17:48;13.30;99.90
53152;DHT22;39234;53.158;6.322;2023-07-02T03:20:13;13.30;99.90
53152;DHT22;39234;53.158;6.322;2023-07-02T03:22:39;13.20;99.90
53152;DHT22;39234;53.158;6.322;2023-07-02T03:25:05;13.20;99.90
53152;DHT22;39234;53.158;6.322;2023-07-02T03:27:31;13.20;99.90
53152;DHT22;39234;53.158;6.322;2023-07-02T03:29:56;13.30;99.90
53152;DHT22;39234;53.158;6.322;2023-07-02T03:32:23;13.50;99.90
53152;DHT22;39234;53.158;6.322;2023-07-02T03:34:49;13.60;99.90
53152;DHT22;39234;53.158;6.322;2023-07-02T03:37:15;13.50;99.90
53152;DHT22;39234;53.158;6.322;2023-07-02T03:39:41;13.60;99.90
53152;DHT22;39234;53.158;6.322;2023-07-02T03:42:06;13.70;99.90
53152;DHT22;39234;53.158;6.322;2023-07-02T03:44:32;13.80;99.90
53152;DHT22;39234;53.158;6.322;2023-07-02T03:46:58;13.60;99.90
53152;DHT22;39234;53.158;6.322;2023-07-02T03:49:24;13.60;99.90
53152;DHT22;39234;53.158;6.322;2023-07-02T03:51:49;13.70;99.90
53152;DHT22;39234;53.158;6.322;2023-07-02T03:54:15;13.60;99.90
53152;DHT22;39234;53.158;6.322;2023-07-02T03:56:41;13.70;99.90
53152;DHT22;39234;53.158;6.322;2023-07-02T03:59:07;13.60;99.90
53152;DHT22;39234;53.158;6.322;2023-07-02T04:01:33;13.60;99.90
53152;DHT22;39234;53.158;6.322;2023-07-02T04:03:59;13.60;99.90
53152;DHT22;39234;53.158;6.322;2023-07-02T04:06:24;13.70;99.90
53152;DHT22;39234;53.158;6.322;2023-07-02T04:08:50;13.80;99.90
53152;DHT22;39234;53.158;6.322;2023-07-02T04:11:16;13.80;99.90
53152;DHT22;39234;53.158;6.322;2023-07-02T04:13:42;13.90;99.90
53152;DHT22;39234;53.158;6.322;2023-07-02T04:16:08;13.80;99.90
53152;DHT22;39234;53.158;6.322;2023-07-02T04:18:33;14.00;99.90
53152;DHT22;39234;53.158;6.322;2023-07-02T04:21:01;13.90;99.90
53152;DHT22;39234;53.158;6.322;2023-07-02T04:23:27;14.00;99.90
53152;DHT22;39234;53.158;6.322;2023-07-02T04:25:53;14.00;99.90
53152;DHT22;39234;53.158;6.322;2023-07-02T04:28:18;13.90;99.90
53152;DHT22;39234;53.158;6.322;2023-07-02T04:30:44;13.90;99.90
53152;DHT22;39234;53.158;6.322;2023-07-02T04:33:10;14.00;99.90
53152;DHT22;39234;53.158;6.322;2023-07-02T04:35:39;14.00;99.90
53152;DHT22;39234;53.158;6.322;2023-07-02T04:38:05;14.10;99.90
53152;DHT22;39234;53.158;6.322;2023-07-02T04:40:32;14.10;99.90
53152;DHT22;39234;53.158;6.322;2023-07-02T04:42:57;14.30;99.90
53152;DHT22;39234;53.158;6.322;2023-07-02T04:45:24;14.30;99.90
53152;DHT22;39234;53.158;6.322;2023-07-02T04:47:51;14.50;99.90
53152;DHT22;39234;53.158;6.322;2023-07-02T04:50:18;14.20;99.90
53152;DHT22;39234;53.158;6.322;2023-07-02T04:52:44;14.30;99.90
53152;DHT22;39234;53.158;6.322;2023-07-02T04:55:10;14.40;99.90
53152;DHT22;39234;53.158;6.322;2023-07-02T04:57:36;14.50;99.90
53152;DHT22;39234;53.158;6.322;2023-07-02T05:00:03;14.90;99.90
53152;DHT22;39234;53.158;6.322;2023-07-02T05:02:32;14.90;99.90
53152;DHT22;39234;53.158;6.322;2023-07-02T05:04:58;14.80;99.90
53152;DHT22;39234;53.158;6.322;2023-07-02T05:07:23;14.80;99.90
53152;DHT22;39234;53.158;6.322;2023-07-02T05:09:49;15.00;99.90
53152;DHT22;39234;53.158;6.322;2023-07-02T05:12:17;15.00;99.90
53152;DHT22;39234;53.158;6.322;2023-07-02T05:14:43;15.10;99.90
53152;DHT22;39234;53.158;6.322;2023-07-02T05:17:09;14.70;99.90
53152;DHT22;39234;53.158;6.322;2023-07-02T05:19:35;15.00;99.90
53152;DHT22;39234;53.158;6.322;2023-07-02T05:22:00;15.50;99.90
53152;DHT22;39234;53.158;6.322;2023-07-02T05:24:26;14.90;99.90
53152;DHT22;39234;53.158;6.322;2023-07-02T05:26:52;15.00;99.90
53152;DHT22;39234;53.158;6.322;2023-07-02T05:29:18;15.20;99.90
53152;DHT22;39234;53.158;6.322;2023-07-02T05:31:44;15.20;99.90
53152;DHT22;39234;53.158;6.322;2023-07-02T05:34:10;15.30;99.90
53152;DHT22;39234;53.158;6.322;2023-07-02T05:36:35;15.40;99.90
53152;DHT22;39234;53.158;6.322;2023-07-02T05:39:01;15.20;99.90
53152;DHT22;39234;53.158;6.322;2023-07-02T05:41:27;15.20;99.90
53152;DHT22;39234;53.158;6.322;2023-07-02T05:43:59;15.40;99.90
53152;DHT22;39234;53.158;6.322;2023-07-02T05:46:25;15.10;99.90
53152;DHT22;39234;53.158;6.322;2023-07-02T05:48:51;15.10;99.90
53152;DHT22;39234;53.158;6.322;2023-07-02T05:51:20;15.10;99.90
53152;DHT22;39234;53.158;6.322;2023-07-02T05:53:47;14.90;99.90
53152;DHT22;39234;53.158;6.322;2023-07-02T05:56:13;15.40;99.90
53152;DHT22;39234;53.158;6.322;2023-07-02T05:58:39;15.20;99.90
53152;DHT22;39234;53.158;6.322;2023-07-02T06:01:04;15.20;99.90
53152;DHT22;39234;53.158;6.322;2023-07-02T06:03:32;15.10;99.90
53152;DHT22;39234;53.158;6.322;2023-07-02T06:05:58;15.30;99.90
53152;DHT22;39234;53.158;6.322;2023-07-02T06:08:23;15.30;99.90
53152;DHT22;39234;53.158;6.322;2023-07-02T06:10:49;15.40;99.90
53152;DHT22;39234;53.158;6.322;2023-07-02T06:13:16;15.60;99.90
53152;DHT22;39234;53.158;6.322;2023-07-02T06:15:42;15.60;99.90
53152;DHT22;39234;53.158;6.322;2023-07-02T06:18:08;16.00;99.90
53152;DHT22;39234;53.158;6.322;2023-07-02T06:20:33;16.20;99.90
53152;DHT22;39234;53.158;6.322;2023-07-02T06:22:59;16.50;99.90
53152;DHT22;39234;53.158;6.322;2023-07-02T06:25:26;16.70;99.90
53152;DHT22;39234;53.158;6.322;2023-07-02T06:27:51;16.70;99.90
53152;DHT22;39234;53.158;6.322;2023-07-02T06:30:21;16.70;99.90
53152;DHT22;39234;53.158;6.322;2023-07-02T06:32:46;16.60;99.90
53152;DHT22;39234;53.158;6.322;2023-07-02T06:35:12;16.90;99.90
53152;DHT22;39234;53.158;6.322;2023-07-02T06:37:38;17.20;99.90
53152;DHT22;39234;53.158;6.322;2023-07-02T06:40:04;17.20;99.90
53152;DHT22;39234;53.158;6.322;2023-07-02T06:42:30;17.30;99.90
53152;DHT22;39234;53.158;6.322;2023-07-02T06:44:56;17.20;99.90
53152;DHT22;39234;53.158;6.322;2023-07-02T06:47:22;16.60;99.90
53152;DHT22;39234;53.158;6.322;2023-07-02T06:49:47;17.70;99.90
53152;DHT22;39234;53.158;6.322;2023-07-02T06:52:13;17.70;99.90
53152;DHT22;39234;53.158;6.322;2023-07-02T06:54:39;17.40;99.90
53152;DHT22;39234;53.158;6.322;2023-07-02T06:57:05;17.30;99.90
53152;DHT22;39234;53.158;6.322;2023-07-02T06:59:31;17.30;99.90
53152;DHT22;39234;53.158;6.322;2023-07-02T07:01:57;17.60;99.90
53152;DHT22;39234;53.158;6.322;2023-07-02T07:04:23;18.10;99.90
53152;DHT22;39234;53.158;6.322;2023-07-02T07:06:48;18.30;99.90
53152;DHT22;39234;53.158;6.322;2023-07-02T07:09:14;18.90;99.90
53152;DHT22;39234;53.158;6.322;2023-07-02T07:11:40;19.10;99.90
53152;DHT22;39234;53.158;6.322;2023-07-02T07:14:05;19.10;99.90
53152;DHT22;39234;53.158;6.322;2023-07-02T07:16:31;19.30;99.90
53152;DHT22;39234;53.158;6.322;2023-07-02T07:18:57;20.20;99.90
53152;DHT22;39234;53.158;6.322;2023-07-02T07:21:22;21.20;99.90
53152;DHT22;39234;53.158;6.322;2023-07-02T07:23:48;21.90;99.90
53152;DHT22;39234;53.158;6.322;2023-07-02T07:26:14;22.40;99.90
53152;DHT22;39234;53.158;6.322;2023-07-02T07:28:40;22.90;99.90
53152;DHT22;39234;53.158;6.322;2023-07-02T07:31:05;23.60;99.90
53152;DHT22;39234;53.158;6.322;2023-07-02T07:33:31;23.90;99.90
53152;DHT22;39234;53.158;6.322;2023-07-02T07:35:57;24.50;99.90
53152;DHT22;39234;53.158;6.322;2023-07-02T07:38:22;24.60;99.90
53152;DHT22;39234;53.158;6.322;2023-07-02T07:40:48;25.10;99.90
53152;DHT22;39234;53.158;6.322;2023-07-02T07:43:14;25.30;99.90
53152;DHT22;39234;53.158;6.322;2023-07-02T07:45:40;25.00;99.90
53152;DHT22;39234;53.158;6.322;2023-07-02T07:48:05;25.10;99.90
53152;DHT22;39234;53.158;6.322;2023-07-02T07:50:31;24.70;99.90
53152;DHT22;39234;53.158;6.322;2023-07-02T07:52:58;24.90;99.90
53152;DHT22;39234;53.158;6.322;2023-07-02T07:55:24;24.30;99.90
53152;DHT22;39234;53.158;6.322;2023-07-02T07:57:51;24.10;99.90
53152;DHT22;39234;53.158;6.322;2023-07-02T08:00:17;24.00;99.90
53152;DHT22;39234;53.158;6.322;2023-07-02T08:02:45;23.10;99.90
53152;DHT22;39234;53.158;6.322;2023-07-02T08:05:10;21.60;99.90
53152;DHT22;39234;53.158;6.322;2023-07-02T08:07:36;21.00;99.90
53152;DHT22;39234;53.158;6.322;2023-07-02T08:10:02;20.30;99.90
53152;DHT22;39234;53.158;6.322;2023-07-02T08:12:28;19.70;99.90
53152;DHT22;39234;53.158;6.322;2023-07-02T08:14:55;19.40;99.90
53152;DHT22;39234;53.158;6.322;2023-07-02T08:17:21;19.10;99.90
53152;DHT22;39234;53.158;6.322;2023-07-02T08:19:47;19.00;99.90
53152;DHT22;39234;53.158;6.322;2023-07-02T08:22:13;18.90;99.90
53152;DHT22;39234;53.158;6.322;2023-07-02T08:24:38;18.50;99.90
53152;DHT22;39234;53.158;6.322;2023-07-02T08:27:05;18.30;99.90
53152;DHT22;39234;53.158;6.322;2023-07-02T08:29:31;18.30;99.90
53152;DHT22;39234;53.158;6.322;2023-07-02T08:31:57;18.30;99.90
53152;DHT22;39234;53.158;6.322;2023-07-02T08:34:23;18.60;99.90
53152;DHT22;39234;53.158;6.322;2023-07-02T08:36:49;18.90;99.90
53152;DHT22;39234;53.158;6.322;2023-07-02T08:39:15;18.80;99.90
53152;DHT22;39234;53.158;6.322;2023-07-02T08:41:45;18.30;99.90
53152;DHT22;39234;53.158;6.322;2023-07-02T08:44:11;18.00;99.90
53152;DHT22;39234;53.158;6.322;2023-07-02T08:46:42;18.10;99.90
53152;DHT22;39234;53.158;6.322;2023-07-02T08:49:08;18.40;99.90
53152;DHT22;39234;53.158;6.322;2023-07-02T08:51:35;17.90;99.90
53152;DHT22;39234;53.158;6.322;2023-07-02T08:54:04;18.90;99.90
53152;DHT22;39234;53.158;6.322;2023-07-02T08:56:30;19.60;99.90
53152;DHT22;39234;53.158;6.322;2023-07-02T08:58:56;19.50;99.90
53152;DHT22;39234;53.158;6.322;2023-07-02T09:01:21;19.40;99.90
53152;DHT22;39234;53.158;6.322;2023-07-02T09:03:48;19.00;99.90
53152;DHT22;39234;53.158;6.322;2023-07-02T09:06:18;18.70;99.90
53152;DHT22;39234;53.158;6.322;2023-07-02T09:08:44;18.40;99.90
53152;DHT22;39234;53.158;6.322;2023-07-02T09:11:14;18.70;99.90
53152;DHT22;39234;53.158;6.322;2023-07-02T09:13:47;19.20;99.90
53152;DHT22;39234;53.158;6.322;2023-07-02T09:16:31;19.70;99.90
53152;DHT22;39234;53.158;6.322;2023-07-02T09:19:03;19.90;99.90
53152;DHT22;39234;53.158;6.322;2023-07-02T09:21:47;20.50;99.90
53152;DHT22;39234;53.158;6.322;2023-07-02T09:24:20;20.40;99.90
53152;DHT22;39234;53.158;6.322;2023-07-02T09:26:51;20.40;99.90
53152;DHT22;39234;53.158;6.322;2023-07-02T09:29:21;20.20;99.90
53152;DHT22;39234;53.158;6.322;2023-07-02T09:31:47;20.00;99.90
53152;DHT22;39234;53.158;6.322;2023-07-02T09:34:14;20.20;99.90
53152;DHT22;39234;53.158;6.322;2023-07-02T09:36:40;20.20;99.90
53152;DHT22;39234;53.158;6.322;2023-07-02T09:39:14;20.20;99.90
53152;DHT22;39234;53.158;6.322;2023-07-02T09:41:41;19.90;99.90
53152;DHT22;39234;53.158;6.322;2023-07-02T09:44:11;19.70;99.90
53152;DHT22;39234;53.158;6.322;2023-07-02T09:46:42;19.50;99.90
53152;DHT22;39234;53.158;6.322;2023-07-02T09:49:14;19.50;99.90
53152;DHT22;39234;53.158;6.322;2023-07-02T09:51:42;19.50;99.90
53152;DHT22;39234;53.158;6.322;2023-07-02T09:54:09;19.20;99.90
53152;DHT22;39234;53.158;6.322;2023-07-02T09:56:35;18.90;99.90
53152;DHT22;39234;53.158;6.322;2023-07-02T09:59:01;19.00;99.90
53152;DHT22;39234;53.158;6.322;2023-07-02T10:01:27;19.40;99.90
53152;DHT22;39234;53.158;6.322;2023-07-02T10:03:53;19.50;99.90
53152;DHT22;39234;53.158;6.322;2023-07-02T10:06:19;20.20;99.90
53152;DHT22;39234;53.158;6.322;2023-07-02T10:09:11;20.50;99.90
53152;DHT22;39234;53.158;6.322;2023-07-02T10:11:37;20.70;99.90
53152;DHT22;39234;53.158;6.322;2023-07-02T10:14:02;20.80;99.90
53152;DHT22;39234;53.158;6.322;2023-07-02T10:16:28;20.60;99.90
53152;DHT22;39234;53.158;6.322;2023-07-02T10:19:08;20.10;99.90
53152;DHT22;39234;53.158;6.322;2023-07-02T10:21:35;19.60;99.90
53152;DHT22;39234;53.158;6.322;2023-07-02T10:24:17;19.40;99.90
53152;DHT22;39234;53.158;6.322;2023-07-02T10:26:54;19.30;99.90
53152;DHT22;39234;53.158;6.322;2023-07-02T10:29:25;19.10;99.90
53152;DHT22;39234;53.158;6.322;2023-07-02T10:31:56;19.00;99.90
53152;DHT22;39234;53.158;6.322;2023-07-02T10:34:48;19.00;99.90
53152;DHT22;39234;53.158;6.322;2023-07-02T10:37:14;19.10;99.90
53152;DHT22;39234;53.158;6.322;2023-07-02T10:39:40;19.30;99.90
53152;DHT22;39234;53.158;6.322;2023-07-02T10:44:32;20.20;99.90
53152;DHT22;39234;53.158;6.322;2023-07-02T10:46:57;20.30;99.90
53152;DHT22;39234;53.158;6.322;2023-07-02T10:49:30;20.50;99.90
53152;DHT22;39234;53.158;6.322;2023-07-02T10:52:00;20.10;99.90
53152;DHT22;39234;53.158;6.322;2023-07-02T10:54:26;19.90;99.90
53152;DHT22;39234;53.158;6.322;2023-07-02T10:56:57;19.80;99.90
53152;DHT22;39234;53.158;6.322;2023-07-02T10:59:24;19.70;99.90
53152;DHT22;39234;53.158;6.322;2023-07-02T11:01:50;19.80;99.90
53152;DHT22;39234;53.158;6.322;2023-07-02T11:04:16;19.60;99.90
53152;DHT22;39234;53.158;6.322;2023-07-02T11:06:43;19.70;99.90
53152;DHT22;39234;53.158;6.322;2023-07-02T11:09:18;19.30;99.90
53152;DHT22;39234;53.158;6.322;2023-07-02T11:12:00;19.40;99.90
53152;DHT22;39234;53.158;6.322;2023-07-02T11:14:30;19.10;99.90
53152;DHT22;39234;53.158;6.322;2023-07-02T11:16:57;19.30;99.90
53152;DHT22;39234;53.158;6.322;2023-07-02T11:19:23;19.40;99.90
53152;DHT22;39234;53.158;6.322;2023-07-02T11:21:54;19.30;99.90
53152;DHT22;39234;53.158;6.322;2023-07-02T11:24:34;19.10;99.90
53152;DHT22;39234;53.158;6.322;2023-07-02T11:27:01;19.30;99.90
53152;DHT22;39234;53.158;6.322;2023-07-02T11:29:29;19.70;99.90
53152;DHT22;39234;53.158;6.322;2023-07-02T11:32:13;19.80;99.90
53152;DHT22;39234;53.158;6.322;2023-07-02T11:34:39;20.10;99.90
53152;DHT22;39234;53.158;6.322;2023-07-02T11:37:06;20.50;99.90
53152;DHT22;39234;53.158;6.322;2023-07-02T11:39:32;20.60;99.90
53152;DHT22;39234;53.158;6.322;2023-07-02T11:41:58;20.50;99.90
53152;DHT22;39234;53.158;6.322;2023-07-02T11:44:24;20.60;99.90
53152;DHT22;39234;53.158;6.322;2023-07-02T11:46:49;20.70;99.90
53152;DHT22;39234;53.158;6.322;2023-07-02T11:49:15;20.80;99.90
53152;DHT22;39234;53.158;6.322;2023-07-02T11:51:42;20.60;99.90
53152;DHT22;39234;53.158;6.322;2023-07-02T11:54:13;20.60;99.90
53152;DHT22;39234;53.158;6.322;2023-07-02T11:56:39;20.50;99.90
53152;DHT22;39234;53.158;6.322;2023-07-02T11:59:07;20.20;99.90
53152;DHT22;39234;53.158;6.322;2023-07-02T12:01:33;20.30;99.90
53152;DHT22;39234;53.158;6.322;2023-07-02T12:03:59;20.20;99.90
53152;DHT22;39234;53.158;6.322;2023-07-02T12:06:25;20.50;99.90
53152;DHT22;39234;53.158;6.322;2023-07-02T12:08:50;20.30;99.90
53152;DHT22;39234;53.158;6.322;2023-07-02T12:11:16;20.10;99.90
53152;DHT22;39234;53.158;6.322;2023-07-02T12:13:42;19.80;99.90
53152;DHT22;39234;53.158;6.322;2023-07-02T12:16:08;19.30;99.90
53152;DHT22;39234;53.158;6.322;2023-07-02T12:18:34;19.40;99.90
53152;DHT22;39234;53.158;6.322;2023-07-02T12:21:00;19.10;99.90
53152;DHT22;39234;53.158;6.322;2023-07-02T12:23:26;19.10;99.90
53152;DHT22;39234;53.158;6.322;2023-07-02T12:25:51;19.20;99.90
53152;DHT22;39234;53.158;6.322;2023-07-02T12:28:17;18.60;99.90
53152;DHT22;39234;53.158;6.322;2023-07-02T12:30:43;18.50;99.90
53152;DHT22;39234;53.158;6.322;2023-07-02T12:33:09;18.30;99.90
53152;DHT22;39234;53.158;6.322;2023-07-02T12:35:34;18.30;99.90
53152;DHT22;39234;53.158;6.322;2023-07-02T12:38:00;18.40;99.90
53152;DHT22;39234;53.158;6.322;2023-07-02T12:40:28;18.30;99.90
53152;DHT22;39234;53.158;6.322;2023-07-02T12:42:53;18.30;99.90
53152;DHT22;39234;53.158;6.322;2023-07-02T12:45:19;18.10;99.90
53152;DHT22;39234;53.158;6.322;2023-07-02T12:47:45;18.00;99.90
53152;DHT22;39234;53.158;6.322;2023-07-02T12:50:11;17.80;99.90
53152;DHT22;39234;53.158;6.322;2023-07-02T12:52:36;17.80;99.90
53152;DHT22;39234;53.158;6.322;2023-07-02T12:55:03;17.80;99.90
53152;DHT22;39234;53.158;6.322;2023-07-02T12:57:29;17.90;99.90
53152;DHT22;39234;53.158;6.322;2023-07-02T12:59:55;18.10;99.90
53152;DHT22;39234;53.158;6.322;2023-07-02T13:02:24;18.10;99.90
53152;DHT22;39234;53.158;6.322;2023-07-02T13:04:50;18.20;99.90
53152;DHT22;39234;53.158;6.322;2023-07-02T13:07:16;18.10;99.90
53152;DHT22;39234;53.158;6.322;2023-07-02T13:09:42;18.10;99.90
53152;DHT22;39234;53.158;6.322;2023-07-02T13:12:09;18.40;99.90
53152;DHT22;39234;53.158;6.322;2023-07-02T13:14:35;18.40;99.90
53152;DHT22;39234;53.158;6.322;2023-07-02T13:17:01;18.70;99.90
53152;DHT22;39234;53.158;6.322;2023-07-02T13:19:30;18.90;99.90
53152;DHT22;39234;53.158;6.322;2023-07-02T13:21:56;18.80;99.90
53152;DHT22;39234;53.158;6.322;2023-07-02T13:24:22;19.00;99.90
53152;DHT22;39234;53.158;6.322;2023-07-02T13:26:48;18.80;99.90
53152;DHT22;39234;53.158;6.322;2023-07-02T13:29:14;19.00;99.90
53152;DHT22;39234;53.158;6.322;2023-07-02T13:31:40;19.20;99.90
53152;DHT22;39234;53.158;6.322;2023-07-02T13:34:06;19.40;99.90
53152;DHT22;39234;53.158;6.322;2023-07-02T13:36:31;19.60;99.90
53152;DHT22;39234;53.158;6.322;2023-07-02T13:38:57;19.20;99.90
53152;DHT22;39234;53.158;6.322;2023-07-02T13:41:23;18.90;99.90
53152;DHT22;39234;53.158;6.322;2023-07-02T13:43:49;18.80;99.90
53152;DHT22;39234;53.158;6.322;2023-07-02T13:46:15;18.70;99.90
53152;DHT22;39234;53.158;6.322;2023-07-02T13:48:40;18.70;99.90
53152;DHT22;39234;53.158;6.322;2023-07-02T13:51:06;18.40;99.90
53152;DHT22;39234;53.158;6.322;2023-07-02T13:53:33;18.60;99.90
53152;DHT22;39234;53.158;6.322;2023-07-02T13:55:59;18.20;99.90
53152;DHT22;39234;53.158;6.322;2023-07-02T13:58:25;18.00;99.90
53152;DHT22;39234;53.158;6.322;2023-07-02T14:00:51;17.80;99.90
53152;DHT22;39234;53.158;6.322;2023-07-02T14:03:16;17.50;99.90
53152;DHT22;39234;53.158;6.322;2023-07-02T14:05:42;17.10;99.90
53152;DHT22;39234;53.158;6.322;2023-07-02T14:08:09;17.30;99.90
53152;DHT22;39234;53.158;6.322;2023-07-02T14:10:35;17.20;99.90
53152;DHT22;39234;53.158;6.322;2023-07-02T14:13:00;17.20;99.90
53152;DHT22;39234;53.158;6.322;2023-07-02T14:15:26;17.50;99.90
53152;DHT22;39234;53.158;6.322;2023-07-02T14:17:53;17.50;99.90
53152;DHT22;39234;53.158;6.322;2023-07-02T14:20:20;17.20;99.90
53152;DHT22;39234;53.158;6.322;2023-07-02T14:22:46;17.30;99.90
53152;DHT22;39234;53.158;6.322;2023-07-02T14:25:12;17.20;99.90
53152;DHT22;39234;53.158;6.322;2023-07-02T14:27:38;17.30;99.90
53152;DHT22;39234;53.158;6.322;2023-07-02T14:30:04;17.10;99.90
53152;DHT22;39234;53.158;6.322;2023-07-02T14:32:33;17.40;99.90
53152;DHT22;39234;53.158;6.322;2023-07-02T14:35:01;17.50;99.90
53152;DHT22;39234;53.158;6.322;2023-07-02T14:37:27;17.70;99.90
53152;DHT22;39234;53.158;6.322;2023-07-02T14:39:52;18.00;99.90
53152;DHT22;39234;53.158;6.322;2023-07-02T14:42:18;18.10;99.90
53152;DHT22;39234;53.158;6.322;2023-07-02T14:44:44;18.50;99.90
53152;DHT22;39234;53.158;6.322;2023-07-02T14:47:09;18.70;99.90
53152;DHT22;39234;53.158;6.322;2023-07-02T14:49:36;18.70;99.90
53152;DHT22;39234;53.158;6.322;2023-07-02T14:52:02;18.60;99.90
53152;DHT22;39234;53.158;6.322;2023-07-02T14:54:28;18.50;99.90
53152;DHT22;39234;53.158;6.322;2023-07-02T14:56:53;18.30;99.90
53152;DHT22;39234;53.158;6.322;2023-07-02T14:59:19;18.80;99.90
53152;DHT22;39234;53.158;6.322;2023-07-02T15:01:45;18.90;99.90
53152;DHT22;39234;53.158;6.322;2023-07-02T15:04:10;19.20;99.90
53152;DHT22;39234;53.158;6.322;2023-07-02T15:06:36;18.80;99.90
53152;DHT22;39234;53.158;6.322;2023-07-02T15:09:02;18.50;99.90
53152;DHT22;39234;53.158;6.322;2023-07-02T15:11:28;18.40;99.90
53152;DHT22;39234;53.158;6.322;2023-07-02T15:13:53;18.40;99.90
53152;DHT22;39234;53.158;6.322;2023-07-02T15:16:19;18.50;99.90
53152;DHT22;39234;53.158;6.322;2023-07-02T15:18:46;18.00;99.90
53152;DHT22;39234;53.158;6.322;2023-07-02T15:21:12;18.00;99.90
53152;DHT22;39234;53.158;6.322;2023-07-02T15:23:38;18.00;99.90
53152;DHT22;39234;53.158;6.322;2023-07-02T15:26:05;17.80;99.90
53152;DHT22;39234;53.158;6.322;2023-07-02T15:28:31;17.70;99.90